Time;durP1;ratioP1;P1;durP2;ratioP2;P2;SDS_P1;SDS_P2;PMS_P1;PMS_P2;Temp;Humidity;BMP_temperature;BMP_pressure;BME280_temperature;BME280_humidity;BME280_pressure;Samples;Min_cycle;Max_cycle;Signal;HPM_P1;HPM_P2
2021/11/29 13:40:25;;;;;;;29.42;16.95;;;;;;;11.20;100.00;99046.91;1872970;76;24211;-59
2021/11/29 13:42:59;;;;;;;27.90;13.55;;;;;;;11.31;99.83;99050.11;1892030;76;22124;-61
2021/11/29 13:45:33;;;;;;;23.15;12.23;;;;;;;11.32;99.24;99053.91;1872880;76;22137;-60
2021/11/29 13:48:24;;;;;;;25.82;11.33;;;;;;;11.29;99.22;99038.31;1873370;76;22169;-60
2021/11/29 13:50:57;;;;;;;26.82;11.18;;;;;;;11.29;99.19;99016.22;1870852;76;22133;-61
2021/11/29 13:53:32;;;;;;;21.02;10.05;;;;;;;11.28;99.29;99010.08;1873227;76;22176;-62
2021/11/29 13:56:05;;;;;;;21.80;10.63;;;;;;;11.29;99.32;98997.61;1857151;76;38266;-65
2021/11/29 13:58:38;;;;;;;23.70;10.88;;;;;;;11.36;99.28;98985.23;1892100;76;22136;-62
2021/11/29 14:01:14;;;;;;;24.77;11.53;;;;;;;11.37;99.01;98971.75;1873556;76;22176;-62
2021/11/29 14:04:05;;;;;;;23.73;10.58;;;;;;;11.35;99.08;98947.20;1870570;76;22184;-62
2021/11/29 14:06:37;;;;;;;25.75;12.43;;;;;;;11.35;99.22;98945.05;1873447;76;22590;-62
2021/11/29 14:09:14;;;;;;;21.57;11.10;;;;;;;11.34;99.30;98918.97;1870290;76;22101;-59
2021/11/29 14:11:43;;;;;;;22.77;10.95;;;;;;;11.33;99.35;98917.80;1891759;76;22172;-64
2021/11/29 14:14:18;;;;;;;21.17;9.38;;;;;;;11.30;99.41;98920.86;1872745;76;22125;-62
2021/11/29 14:17:12;;;;;;;18.73;9.50;;;;;;;11.30;99.45;98907.05;1892018;76;22160;-65
2021/11/29 14:19:45;;;;;;;20.65;8.68;;;;;;;11.31;99.46;98891.92;1892128;76;22128;-60
2021/11/29 14:22:49;;;;;;;21.02;9.63;;;;;;;11.31;99.49;98868.00;1873354;76;22113;-60
2021/11/29 14:25:22;;;;;;;19.40;8.95;;;;;;;11.34;99.50;98869.78;1873497;76;22184;-60
2021/11/29 14:27:54;;;;;;;21.37;9.75;;;;;;;11.37;99.44;98873.87;1858034;76;22191;-61
2021/11/29 14:30:28;;;;;;;20.68;9.78;;;;;;;11.39;99.37;98867.38;1829875;76;22147;-60
2021/11/29 14:33:00;;;;;;;25.10;10.65;;;;;;;11.41;99.29;98857.36;1873404;76;22643;-62
2021/11/29 14:35:52;;;;;;;17.40;8.55;;;;;;;11.41;99.34;98844.06;1873251;76;22180;-63
2021/11/29 14:38:24;;;;;;;23.98;10.53;;;;;;;11.41;99.42;98855.21;1892097;76;22611;-65
2021/11/29 14:41:16;;;;;;;20.52;10.43;;;;;;;11.41;99.59;98865.34;1873346;76;22200;-62
2021/11/29 14:43:55;;;;;;;21.95;10.98;;;;;;;11.40;99.72;98843.76;1873132;76;22176;-62
2021/11/29 14:46:34;;;;;;;20.75;10.18;;;;;;;11.38;99.87;98832.98;1891933;76;22589;-63
2021/11/29 14:49:22;;;;;;;19.32;9.73;;;;;;;11.34;100.00;98828.57;1872933;76;22125;-63
2021/11/29 14:52:16;;;;;;;19.75;10.40;;;;;;;11.34;100.00;98827.23;1873129;76;22137;-64
2021/11/29 14:55:11;;;;;;;23.45;10.35;;;;;;;11.34;100.00;98828.57;1873452;76;22213;-63
2021/11/29 14:58:00;;;;;;;21.05;10.32;;;;;;;11.36;100.00;98820.39;1864213;76;22213;-66
2021/11/29 15:00:45;;;;;;;19.87;10.53;;;;;;;11.36;100.00;98819.89;1868492;76;22204;-63
2021/11/29 15:03:22;;;;;;;25.25;11.38;;;;;;;11.38;100.00;98828.48;1873559;76;22168;-66
2021/11/29 15:06:28;;;;;;;21.23;10.32;;;;;;;11.40;100.00;98820.34;1873533;76;22128;-64
2021/11/29 15:09:04;;;;;;;22.93;11.12;;;;;;;11.38;100.00;98816.52;1871017;76;20093;-63
2021/11/29 15:11:51;;;;;;;24.98;11.53;;;;;;;11.39;100.00;98813.38;1892709;76;22131;-64
2021/11/29 15:14:40;;;;;;;22.58;11.45;;;;;;;11.40;100.00;98812.36;1873917;76;22113;-64
2021/11/29 15:17:45;;;;;;;22.40;11.03;;;;;;;11.41;100.00;98792.73;1872972;76;22120;-62
2021/11/29 15:20:21;;;;;;;23.12;11.18;;;;;;;11.41;100.00;98813.48;1873791;76;22161;-64
2021/11/29 15:23:01;;;;;;;19.42;9.73;;;;;;;11.42;100.00;98789.87;1873940;76;22133;-63
2021/11/29 15:25:54;;;;;;;20.17;10.60;;;;;;;11.45;100.00;98772.72;1892704;76;22152;-65
2021/11/29 15:28:26;;;;;;;23.47;11.83;;;;;;;11.47;100.00;98768.84;1873906;76;22226;-64
2021/11/29 15:31:19;;;;;;;23.07;12.05;;;;;;;11.49;100.00;98727.45;1873901;76;22184;-62
2021/11/29 15:34:07;;;;;;;21.77;11.63;;;;;;;11.50;100.00;98722.44;1873853;76;22180;-64
2021/11/29 15:37:09;;;;;;;22.37;11.75;;;;;;;11.51;100.00;98706.80;1858006;76;27915;-64
2021/11/29 15:39:41;;;;;;;23.77;10.10;;;;;;;11.58;100.00;98696.22;1873987;76;22125;-62
2021/11/29 15:42:33;;;;;;;22.67;11.68;;;;;;;11.63;100.00;98685.31;1871091;76;22128;-62
2021/11/29 15:45:13;;;;;;;23.07;11.53;;;;;;;11.63;100.00;98662.70;1873979;76;22173;-64
2021/11/29 15:48:05;;;;;;;21.68;11.15;;;;;;;11.64;100.00;98663.52;1873946;76;22138;-65
2021/11/29 15:50:37;;;;;;;20.85;10.72;;;;;;;11.63;100.00;98650.73;1873933;76;22136;-68
2021/11/29 15:53:10;;;;;;;22.70;10.23;;;;;;;11.64;100.00;98631.09;1873952;76;22152;-67
2021/11/29 15:55:50;;;;;;;21.48;10.30;;;;;;;11.67;100.00;98596.13;1873126;76;22577;-65
2021/11/29 15:58:23;;;;;;;20.92;10.58;;;;;;;11.70;100.00;98597.55;1874020;76;22591;-67
2021/11/29 16:01:17;;;;;;;20.48;9.85;;;;;;;11.71;100.00;98573.41;1873981;76;22574;-69
2021/11/29 16:03:53;;;;;;;22.73;10.03;;;;;;;11.74;100.00;98587.65;1874007;76;22100;-66
2021/11/29 16:06:27;;;;;;;22.32;11.68;;;;;;;11.77;100.00;98606.41;1874016;76;22578;-67
2021/11/29 16:08:59;;;;;;;21.15;10.20;;;;;;;11.81;100.00;98588.18;1874039;76;22136;-67
2021/11/29 16:11:32;;;;;;;20.10;10.25;;;;;;;11.83;100.00;98596.32;1874028;76;22129;-66
2021/11/29 16:14:05;;;;;;;19.12;10.32;;;;;;;11.87;100.00;98598.08;1873935;76;22578;-68
2021/11/29 16:16:37;;;;;;;20.92;11.15;;;;;;;11.88;100.00;98586.41;1874031;76;22138;-68
2021/11/29 16:19:28;;;;;;;23.00;12.10;;;;;;;11.92;100.00;98586.33;1892906;76;22151;-68
2021/11/29 16:22:02;;;;;;;23.20;12.90;;;;;;;11.93;100.00;98582.64;1892813;76;22153;-68
2021/11/29 16:24:53;;;;;;;24.67;11.80;;;;;;;11.94;100.00;98570.45;1874003;76;22562;-69
2021/11/29 16:27:26;;;;;;;20.62;11.83;;;;;;;11.97;100.00;98576.72;1873955;76;22165;-66
2021/11/29 16:29:58;;;;;;;24.60;14.30;;;;;;;12.00;100.00;98512.98;1874016;76;22138;-66
2021/11/29 16:32:35;;;;;;;23.80;14.60;;;;;;;12.01;100.00;98482.67;1874134;76;22125;-68
2021/11/29 16:35:08;;;;;;;25.90;13.08;;;;;;;12.00;100.00;98463.75;1874030;76;22146;-70
2021/11/29 16:37:59;;;;;;;24.32;14.13;;;;;;;12.00;100.00;98441.13;1874023;76;22132;-67
2021/11/29 16:40:32;;;;;;;26.77;15.55;;;;;;;11.98;100.00;98437.31;1874016;76;22190;-66
2021/11/29 16:43:04;;;;;;;26.33;14.73;;;;;;;12.01;100.00;98450.74;1874043;76;22121;-66
2021/11/29 16:45:58;;;;;;;26.55;15.72;;;;;;;12.00;100.00;98431.81;1871273;76;22599;-70
2021/11/29 16:48:33;;;;;;;26.10;14.33;;;;;;;11.99;100.00;98436.80;1874151;76;22120;-67
2021/11/29 16:51:07;;;;;;;27.52;15.80;;;;;;;11.98;100.00;98452.47;1874015;76;22101;-68
2021/11/29 16:54:01;;;;;;;27.40;15.10;;;;;;;12.00;100.00;98454.44;1873979;76;22207;-68
2021/11/29 16:56:35;;;;;;;26.80;15.28;;;;;;;12.01;100.00;98452.07;1892818;76;22139;-69
2021/11/29 16:59:25;;;;;;;25.20;14.68;;;;;;;12.05;100.00;98450.65;1873964;76;22120;-67
2021/11/29 17:01:57;;;;;;;24.70;14.70;;;;;;;12.07;100.00;98434.47;1892813;76;22108;-69
2021/11/29 17:04:32;;;;;;;24.67;14.83;;;;;;;12.09;100.00;98443.90;1874034;76;22128;-71
2021/11/29 17:07:05;;;;;;;25.50;15.55;;;;;;;12.12;100.00;98400.89;1874040;76;22124;-68
2021/11/29 17:09:39;;;;;;;27.62;15.90;;;;;;;12.14;100.00;98408.66;1892801;76;22573;-69
2021/11/29 17:12:11;;;;;;;26.25;14.30;;;;;;;12.16;100.00;98405.30;1874047;76;22105;-66
2021/11/29 17:15:05;;;;;;;25.95;14.90;;;;;;;12.19;99.88;98388.41;1874003;76;22120;-66
2021/11/29 17:17:38;;;;;;;27.60;14.85;;;;;;;12.27;99.95;98381.52;1874025;76;22150;-68
2021/11/29 17:20:35;;;;;;;20.75;12.33;;;;;;;12.34;99.43;98403.34;1892787;76;22096;-66
2021/11/29 17:23:08;;;;;;;22.20;11.93;;;;;;;12.41;99.10;98400.15;1874018;76;22116;-67
2021/11/29 17:25:59;;;;;;;28.17;12.15;;;;;;;12.49;98.26;98366.65;1874104;76;22132;-66
2021/11/29 17:28:31;;;;;;;24.72;13.25;;;;;;;12.59;97.79;98362.22;1874013;76;22133;-70
2021/11/29 17:31:03;;;;;;;24.72;12.53;;;;;;;12.63;97.04;98310.98;1874026;76;22112;-69
2021/11/29 17:33:55;;;;;;;24.98;13.18;;;;;;;12.68;96.47;98297.03;1892782;76;22149;-66
2021/11/29 17:36:27;;;;;;;21.75;12.37;;;;;;;12.69;96.25;98257.37;1892834;76;22603;-68
2021/11/29 17:38:59;;;;;;;29.30;15.15;;;;;;;12.67;96.43;98252.27;1892714;76;22112;-67
2021/11/29 17:41:31;;;;;;;23.52;13.25;;;;;;;12.64;96.58;98227.89;1874026;76;22105;-67
2021/11/29 17:44:04;;;;;;;25.40;13.80;;;;;;;12.62;96.90;98206.80;1892714;76;22148;-66
2021/11/29 17:46:59;;;;;;;23.05;12.47;;;;;;;12.62;97.24;98253.94;1892770;76;22128;-69
2021/11/29 17:49:51;;;;;;;23.75;12.75;;;;;;;12.61;97.53;98233.63;1881918;75;22191;-67
2021/11/29 17:52:44;;;;;;;22.98;11.65;;;;;;;12.57;97.72;98217.80;1892812;76;22127;-69
2021/11/29 17:55:35;;;;;;;22.45;12.50;;;;;;;12.55;97.70;98208.67;1873990;76;22689;-68
2021/11/29 17:58:08;;;;;;;22.32;12.58;;;;;;;12.54;97.74;98213.70;1874147;76;22142;-67
2021/11/29 18:00:46;;;;;;;23.75;12.18;;;;;;;12.54;97.66;98184.40;1873189;76;22169;-67
2021/11/29 18:03:20;;;;;;;27.40;12.20;;;;;;;12.54;97.60;98227.02;1892821;76;22111;-66
2021/11/29 18:06:15;;;;;;;21.80;12.10;;;;;;;12.55;97.59;98268.59;1873989;76;22594;-67
2021/11/29 18:14:17;;;;;;;25.68;13.00;;;;;;;12.54;98.71;98229.68;1873992;76;22589;-68
2021/11/29 18:17:09;;;;;;;22.98;11.48;;;;;;;12.48;99.47;98213.22;1873984;76;22164;-66
2021/11/29 18:19:41;;;;;;;27.42;13.62;;;;;;;12.42;99.49;98156.80;1874037;76;22136;-66
2021/11/29 18:22:14;;;;;;;25.40;12.03;;;;;;;12.41;99.71;98140.52;1892945;76;22572;-66
2021/11/29 18:24:46;;;;;;;21.93;11.65;;;;;;;12.41;99.82;98149.84;1892822;76;22104;-67
2021/11/29 18:27:43;;;;;;;23.38;12.90;;;;;;;12.42;99.80;98154.14;1892781;76;22661;-67
2021/11/29 18:30:18;;;;;;;24.35;11.88;;;;;;;12.43;99.54;98147.80;1892713;76;22124;-66
2021/11/29 18:32:51;;;;;;;22.85;12.63;;;;;;;12.45;99.05;98146.55;1892827;76;22124;-65
2021/11/29 18:35:42;;;;;;;25.88;12.05;;;;;;;12.50;98.82;98124.59;1892803;76;22156;-68
2021/11/29 18:38:15;;;;;;;24.10;13.38;;;;;;;12.50;98.63;98132.59;1892828;76;22127;-66
2021/11/29 18:40:47;;;;;;;24.10;13.05;;;;;;;12.50;98.58;98128.08;1892834;76;22108;-66
2021/11/29 18:43:39;;;;;;;23.90;12.53;;;;;;;12.50;98.34;98128.59;1873917;76;22669;-67
2021/11/29 18:46:11;;;;;;;23.90;12.70;;;;;;;12.49;98.14;98137.10;1874033;76;22586;-66
2021/11/29 18:48:43;;;;;;;24.85;13.32;;;;;;;12.50;98.02;98135.25;1892834;76;22135;-66
2021/11/29 18:51:34;;;;;;;26.62;13.20;;;;;;;12.49;97.67;98130.96;1892820;76;22191;-67
2021/11/29 18:54:07;;;;;;;21.90;11.78;;;;;;;12.49;97.56;98113.66;1892831;76;22168;-66
2021/11/29 18:56:39;;;;;;;21.42;12.00;;;;;;;12.49;97.25;98103.81;1874036;76;22124;-66
2021/11/29 18:59:30;;;;;;;26.02;13.13;;;;;;;12.50;96.98;98098.78;1871295;76;22133;-67
2021/11/29 19:02:03;;;;;;;25.12;12.43;;;;;;;12.50;96.70;98104.11;1874024;76;22129;-67
2021/11/29 19:04:36;;;;;;;21.70;11.22;;;;;;;12.53;96.49;98114.34;1892719;76;22108;-67
2021/11/29 19:07:28;;;;;;;22.17;13.10;;;;;;;12.54;95.90;98075.20;1873992;76;22121;-68
2021/11/29 19:10:00;;;;;;;24.77;12.10;;;;;;;12.57;95.90;98095.28;1892823;76;22131;-68
2021/11/29 19:12:51;;;;;;;26.60;12.53;;;;;;;12.57;95.34;98085.44;1873993;76;22201;-68
2021/11/29 19:15:23;;;;;;;27.75;12.43;;;;;;;12.62;95.08;98101.59;1874031;76;22129;-67
2021/11/29 19:17:56;;;;;;;25.40;12.50;;;;;;;12.68;94.75;98087.91;1874023;76;22112;-68
2021/11/29 19:20:29;;;;;;;23.65;11.83;;;;;;;12.69;94.26;98089.55;1874030;76;22101;-66
2021/11/29 19:23:21;;;;;;;20.02;10.20;;;;;;;12.72;93.78;98074.47;1873982;76;22136;-69
2021/11/29 19:25:54;;;;;;;22.32;12.05;;;;;;;12.74;93.57;98085.19;1892827;76;22111;-67
2021/11/29 19:28:27;;;;;;;23.75;13.30;;;;;;;12.77;93.78;98123.92;1892821;76;22189;-66
2021/11/29 19:30:59;;;;;;;22.95;13.08;;;;;;;12.78;93.60;98097.57;1874030;76;22139;-68
2021/11/29 19:33:31;;;;;;;22.30;10.93;;;;;;;12.79;93.28;98077.88;1874021;76;22136;-66
2021/11/29 19:36:06;;;;;;;22.87;11.10;;;;;;;12.79;93.13;98101.34;1874027;76;22157;-67
2021/11/29 19:38:57;;;;;;;23.75;11.65;;;;;;;12.83;92.94;98103.58;1892785;76;22132;-66
2021/11/29 19:44:02;;;;;;;21.25;11.20;;;;;;;12.90;91.76;98077.20;1874025;76;22141;-65
2021/11/29 19:46:53;;;;;;;24.40;12.20;;;;;;;12.99;90.89;98077.74;1892780;76;22112;-66
2021/11/29 19:49:26;;;;;;;25.12;11.03;;;;;;;13.04;90.76;98073.91;1874025;76;22121;-66
2021/11/29 19:52:17;;;;;;;25.85;11.45;;;;;;;13.10;89.94;98074.88;1873870;76;22097;-67
2021/11/29 19:54:50;;;;;;;31.52;13.50;;;;;;;13.15;89.21;98062.51;1892824;76;22157;-68
2021/11/29 19:57:22;;;;;;;29.77;13.80;;;;;;;13.19;88.87;98033.56;1874029;76;22097;-66
2021/11/29 20:00:14;;;;;;;29.52;14.15;;;;;;;13.23;88.75;98067.59;1873990;76;22538;-68
2021/11/29 20:02:47;;;;;;;28.12;11.68;;;;;;;13.26;88.53;98067.14;1874031;76;22551;-66
2021/11/29 20:05:20;;;;;;;31.73;12.35;;;;;;;13.32;88.51;98068.13;1892827;76;22131;-68
2021/11/29 20:08:11;;;;;;;30.17;14.05;;;;;;;13.32;87.87;98052.66;1873888;76;22121;-67
2021/11/29 20:10:44;;;;;;;32.88;11.73;;;;;;;13.33;87.33;98064.42;1892821;76;22143;-66
2021/11/29 20:13:16;;;;;;;33.28;12.10;;;;;;;13.37;87.17;98074.95;1873920;76;22144;-65
2021/11/29 20:15:53;;;;;;;32.55;13.40;;;;;;;13.41;86.81;98076.63;1874039;76;22150;-65
2021/11/29 20:18:25;;;;;;;28.80;12.23;;;;;;;13.43;86.88;98074.05;1874034;76;22150;-65
2021/11/29 20:20:57;;;;;;;33.20;13.60;;;;;;;13.46;86.42;98066.14;1874029;76;22105;-69
2021/11/29 20:23:34;;;;;;;30.10;11.40;;;;;;;13.47;86.07;98077.91;1874012;76;22150;-70
2021/11/29 20:26:05;;;;;;;35.80;12.00;;;;;;;13.51;85.73;98052.44;1874146;76;22141;-68
2021/11/29 20:28:56;;;;;;;42.78;14.55;;;;;;;13.53;85.25;98050.87;1873989;76;22144;-69
2021/11/29 20:31:28;;;;;;;33.83;13.68;;;;;;;13.54;84.96;98059.97;1874041;76;22578;-66
2021/11/29 20:34:01;;;;;;;41.18;13.93;;;;;;;13.57;84.95;98044.58;1874024;76;22549;-68
2021/11/29 20:36:33;;;;;;;37.75;11.45;;;;;;;13.58;84.71;98060.34;1874028;76;22575;-66
2021/11/29 20:39:26;;;;;;;39.08;13.45;;;;;;;13.60;84.54;98074.30;1874011;76;22137;-66
2021/11/29 20:41:58;;;;;;;37.05;13.15;;;;;;;13.60;84.20;98080.97;1874025;76;22566;-66
2021/11/29 20:44:31;;;;;;;45.65;13.08;;;;;;;13.62;83.91;98070.88;1892716;76;22171;-67
2021/11/29 20:47:32;;;;;;;;;;;;;;;;;;;;;
2021/11/29 20:49:56;;;;;;;38.15;14.05;;;;;;;13.66;83.37;98076.06;1892833;76;22145;-68
2021/11/29 20:52:47;;;;;;;35.25;11.60;;;;;;;13.67;83.02;98040.34;1874004;76;22129;-65
2021/11/29 20:55:20;;;;;;;34.88;12.55;;;;;;;13.68;83.00;98058.48;1874032;76;22566;-66
2021/11/29 20:58:11;;;;;;;34.70;12.50;;;;;;;13.69;83.08;98067.63;1892812;76;22116;-65
2021/11/29 21:00:43;;;;;;;38.10;13.90;;;;;;;13.67;82.98;98067.54;1874017;76;22125;-68
2021/11/29 21:03:15;;;;;;;39.42;14.38;;;;;;;13.66;83.19;98086.73;1892828;76;22119;-65
2021/11/29 21:06:06;;;;;;;38.78;13.32;;;;;;;13.65;83.03;98071.77;1873902;76;22146;-65
2021/11/29 21:08:39;;;;;;;36.20;13.08;;;;;;;13.66;83.14;98070.73;1874033;76;22142;-65
2021/11/29 21:11:11;;;;;;;42.85;13.18;;;;;;;13.65;83.13;98063.77;1892714;76;22140;-66
2021/11/29 21:13:43;;;;;;;42.65;15.55;;;;;;;13.63;83.02;98070.35;1871297;76;22582;-66
2021/11/29 21:16:34;;;;;;;36.13;11.35;;;;;;;13.60;83.13;98061.45;1874007;76;22191;-65
2021/11/29 21:19:07;;;;;;;39.92;13.70;;;;;;;13.58;83.07;98076.35;1874014;76;22158;-66
2021/11/29 21:21:58;;;;;;;49.85;13.55;;;;;;;13.58;83.20;98079.02;1874004;76;22166;-65
2021/11/29 21:24:31;;;;;;;37.95;12.90;;;;;;;13.55;83.22;98087.48;1874019;76;22116;-65
2021/11/29 21:27:22;;;;;;;38.60;11.80;;;;;;;13.53;83.32;98076.20;1873880;76;22144;-65
2021/11/29 21:30:14;;;;;;;35.68;13.08;;;;;;;13.54;83.35;98065.83;1884190;76;22638;-68
2021/11/29 21:33:05;;;;;;;45.23;13.95;;;;;;;13.54;83.47;98059.16;1874028;76;22574;-66
2021/11/29 21:35:41;;;;;;;38.42;13.40;;;;;;;13.52;83.34;98057.24;1874031;76;22112;-68
2021/11/29 21:38:13;;;;;;;37.83;11.83;;;;;;;13.50;83.54;98085.97;1892818;76;22574;-67
2021/11/29 21:41:05;;;;;;;33.67;11.78;;;;;;;13.46;83.75;98090.15;1892920;76;22156;-66
2021/11/29 21:43:37;;;;;;;36.48;14.13;;;;;;;13.43;83.95;98068.72;1874147;76;22089;-66
2021/11/29 21:46:29;;;;;;;38.20;12.05;;;;;;;13.41;84.07;98062.81;1892896;76;22140;-66
2021/11/29 21:49:01;;;;;;;31.87;10.15;;;;;;;13.38;84.07;98050.42;1874012;76;22530;-64
2021/11/29 21:51:33;;;;;;;43.48;12.28;;;;;;;13.37;84.02;98068.28;1892932;76;22553;-66
2021/11/29 21:54:05;;;;;;;38.05;11.55;;;;;;;13.38;84.12;98073.09;1892820;76;22606;-65
2021/11/29 21:56:37;;;;;;;43.52;15.68;;;;;;;13.37;84.02;98084.80;1874028;76;22097;-65
2021/11/29 21:59:10;;;;;;;38.55;11.30;;;;;;;13.36;84.02;98093.81;1874007;76;22125;-65
2021/11/29 22:01:44;;;;;;;34.67;10.30;;;;;;;13.33;83.79;98091.09;1874040;76;22101;-65
2021/11/29 22:04:16;;;;;;;30.17;9.93;;;;;;;13.34;83.70;98094.56;1874033;76;22097;-65
2021/11/29 22:06:48;;;;;;;31.55;10.28;;;;;;;13.33;83.73;98093.75;1874028;76;22124;-65
2021/11/29 22:09:39;;;;;;;38.42;11.75;;;;;;;13.33;83.71;98079.61;1873992;76;22128;-64
2021/11/29 22:12:11;;;;;;;35.28;9.55;;;;;;;13.31;83.65;98081.14;1892830;76;22137;-64
2021/11/29 22:15:04;;;;;;;28.90;9.75;;;;;;;13.29;83.40;98069.89;1873874;76;22097;-65
2021/11/29 22:17:36;;;;;;;37.93;10.28;;;;;;;13.28;83.23;98079.75;1874147;76;22150;-64
2021/11/29 22:20:10;;;;;;;30.90;10.88;;;;;;;13.29;83.07;98089.38;1873911;76;22101;-65
2021/11/29 22:23:02;;;;;;;39.10;18.30;;;;;;;13.30;82.90;98088.33;1892781;76;22127;-65
2021/11/29 22:25:34;;;;;;;34.88;12.70;;;;;;;13.29;82.60;98074.70;1871322;76;22566;-65
2021/11/29 22:28:06;;;;;;;33.35;9.75;;;;;;;13.29;82.34;98084.04;1892829;76;22108;-65
2021/11/29 22:30:38;;;;;;;39.75;10.45;;;;;;;13.30;82.33;98082.19;1874027;76;22124;-65
2021/11/29 22:33:30;;;;;;;34.40;10.13;;;;;;;13.29;82.29;98090.70;1865517;75;22210;-64
2021/11/29 22:36:04;;;;;;;22.58;7.42;;;;;;;13.30;82.06;98094.19;1892821;76;22141;-64
2021/11/29 22:38:41;;;;;;;30.62;8.40;;;;;;;13.32;81.91;98092.65;1874033;76;22182;-67
2021/11/29 22:41:32;;;;;;;30.35;8.75;;;;;;;13.33;81.49;98075.61;1892794;76;22120;-64
2021/11/29 22:44:04;;;;;;;29.95;9.43;;;;;;;13.31;81.37;98077.14;1874020;76;22567;-65
2021/11/29 22:46:37;;;;;;;34.23;8.95;;;;;;;13.30;81.22;98086.19;1874009;76;22164;-65
2021/11/29 22:49:28;;;;;;;24.75;8.15;;;;;;;13.28;81.17;98090.41;1892691;76;22147;-68
2021/11/29 22:52:00;;;;;;;31.90;9.00;;;;;;;13.28;81.25;98088.27;1874019;76;22132;-65
2021/11/29 22:55:11;;;;;;;29.02;8.73;;;;;;;13.27;81.29;98079.45;1866218;75;22185;-67
2021/11/29 22:57:43;;;;;;;30.45;10.18;;;;;;;13.25;81.19;98063.37;1892817;76;22127;-64
2021/11/29 23:00:50;;;;;;;31.00;8.48;;;;;;;13.24;81.08;98047.89;1878132;75;22195;-66
2021/11/29 23:03:24;;;;;;;29.95;7.42;;;;;;;13.23;81.05;98058.27;1892811;76;22593;-65
2021/11/29 23:06:20;;;;;;;30.80;8.10;;;;;;;13.20;81.15;98053.33;1874011;76;22129;-64
2021/11/29 23:09:02;;;;;;;30.68;9.40;;;;;;;13.17;81.21;98076.42;1892825;76;22104;-65
2021/11/29 23:11:40;;;;;;;32.60;9.20;;;;;;;13.17;81.35;98096.94;1874040;76;22097;-65
2021/11/29 23:14:16;;;;;;;27.00;8.65;;;;;;;13.15;81.28;98113.69;1892803;76;22120;-64
2021/11/29 23:16:53;;;;;;;37.05;9.88;;;;;;;13.13;81.21;98131.23;1874056;76;20193;-65
2021/11/29 23:19:44;;;;;;;30.25;9.43;;;;;;;13.13;81.19;98125.91;1873998;76;22128;-64
2021/11/29 23:22:16;;;;;;;26.57;7.75;;;;;;;13.11;81.14;98101.30;1892821;76;22128;-65
2021/11/29 23:24:48;;;;;;;28.87;7.92;;;;;;;13.09;81.19;98094.05;1892823;76;22165;-68
2021/11/29 23:27:21;;;;;;;24.52;6.90;;;;;;;13.07;81.26;98090.77;1892799;76;22145;-65
2021/11/29 23:30:12;;;;;;;28.45;8.08;;;;;;;13.04;81.33;98104.03;1873978;76;22558;-65
2021/11/29 23:32:45;;;;;;;30.00;7.83;;;;;;;13.01;81.47;98104.45;1874026;76;22553;-65
2021/11/29 23:35:36;;;;;;;31.80;9.75;;;;;;;13.00;81.70;98090.03;1874111;76;22148;-65
2021/11/29 23:38:08;;;;;;;28.02;12.98;;;;;;;12.97;81.96;98109.11;1892818;76;22119;-65
2021/11/29 23:41:00;;;;;;;29.27;9.95;;;;;;;12.92;82.23;98115.09;1873884;76;22553;-65
2021/11/29 23:43:34;;;;;;;29.07;8.35;;;;;;;12.90;82.37;98124.34;1874018;76;22117;-64
2021/11/29 23:46:38;;;;;;;29.80;8.45;;;;;;;12.89;82.57;98108.88;1890306;76;22594;-65
2021/11/29 23:49:36;;;;;;;27.45;9.08;;;;;;;12.88;82.64;98109.08;1879290;75;22193;-67
2021/11/29 23:52:32;;;;;;;32.03;7.67;;;;;;;12.85;82.75;98098.88;1874018;76;22093;-64
2021/11/29 23:55:15;;;;;;;26.30;7.10;;;;;;;12.82;82.92;98094.78;1873995;76;22120;-64
2021/11/29 23:57:47;;;;;;;24.92;7.62;;;;;;;12.81;83.40;98112.33;1874031;76;22096;-65
